sensor_id;sensor_type;location;lat;lon;timestamp;temperature;humidity
4787;DHT22;62338;48.832;9.422;2024-03-17T00:01:47;4.80;99.90
4787;DHT22;62338;48.832;9.422;2024-03-17T00:03:48;4.80;99.90
4787;DHT22;62338;48.832;9.422;2024-03-17T00:05:56;4.80;99.90
4787;DHT22;62338;48.832;9.422;2024-03-17T00:07:57;4.70;99.90
4787;DHT22;62338;48.832;9.422;2024-03-17T00:09:58;4.70;99.90
4787;DHT22;62338;48.832;9.422;2024-03-17T00:11:59;4.70;99.90
4787;DHT22;62338;48.832;9.422;2024-03-17T00:13:59;4.70;99.90
4787;DHT22;62338;48.832;9.422;2024-03-17T00:16:00;4.70;99.90
4787;DHT22;62338;48.832;9.422;2024-03-17T00:18:01;4.70;99.90
4787;DHT22;62338;48.832;9.422;2024-03-17T00:20:03;4.80;99.90
4787;DHT22;62338;48.832;9.422;2024-03-17T00:22:09;4.80;99.90
4787;DHT22;62338;48.832;9.422;2024-03-17T00:24:14;4.70;99.90
4787;DHT22;62338;48.832;9.422;2024-03-17T00:26:15;4.70;99.90
4787;DHT22;62338;48.832;9.422;2024-03-17T00:28:16;4.70;99.90
4787;DHT22;62338;48.832;9.422;2024-03-17T00:30:17;4.70;99.90
4787;DHT22;62338;48.832;9.422;2024-03-17T00:32:18;4.70;99.90
4787;DHT22;62338;48.832;9.422;2024-03-17T00:34:19;4.80;99.90
4787;DHT22;62338;48.832;9.422;2024-03-17T00:36:20;4.80;99.90
4787;DHT22;62338;48.832;9.422;2024-03-17T00:38:21;4.90;99.90
4787;DHT22;62338;48.832;9.422;2024-03-17T00:40:22;4.90;99.90
4787;DHT22;62338;48.832;9.422;2024-03-17T00:42:22;4.90;99.90
4787;DHT22;62338;48.832;9.422;2024-03-17T00:44:23;4.90;99.90
4787;DHT22;62338;48.832;9.422;2024-03-17T00:46:24;4.90;99.90
4787;DHT22;62338;48.832;9.422;2024-03-17T00:48:25;4.90;99.90
4787;DHT22;62338;48.832;9.422;2024-03-17T00:50:25;5.00;99.90
4787;DHT22;62338;48.832;9.422;2024-03-17T00:52:26;5.00;99.90
4787;DHT22;62338;48.832;9.422;2024-03-17T00:54:28;5.00;99.90
4787;DHT22;62338;48.832;9.422;2024-03-17T00:56:29;5.00;99.90
4787;DHT22;62338;48.832;9.422;2024-03-17T00:58:30;4.90;99.90
4787;DHT22;62338;48.832;9.422;2024-03-17T01:00:30;4.90;99.90
4787;DHT22;62338;48.832;9.422;2024-03-17T01:02:33;4.90;99.90
4787;DHT22;62338;48.832;9.422;2024-03-17T01:04:34;4.90;99.90
4787;DHT22;62338;48.832;9.422;2024-03-17T01:06:35;4.90;99.90
4787;DHT22;62338;48.832;9.422;2024-03-17T01:08:36;4.90;99.90
4787;DHT22;62338;48.832;9.422;2024-03-17T01:10:38;4.90;99.90
4787;DHT22;62338;48.832;9.422;2024-03-17T01:12:39;4.90;99.90
4787;DHT22;62338;48.832;9.422;2024-03-17T01:14:40;4.90;99.90
4787;DHT22;62338;48.832;9.422;2024-03-17T01:16:41;4.90;99.90
4787;DHT22;62338;48.832;9.422;2024-03-17T01:18:42;4.90;99.90
4787;DHT22;62338;48.832;9.422;2024-03-17T01:20:45;4.90;99.90
4787;DHT22;62338;48.832;9.422;2024-03-17T01:22:46;5.00;99.90
4787;DHT22;62338;48.832;9.422;2024-03-17T01:24:47;4.90;99.90
4787;DHT22;62338;48.832;9.422;2024-03-17T01:26:48;4.90;99.90
4787;DHT22;62338;48.832;9.422;2024-03-17T01:28:50;4.80;99.90
4787;DHT22;62338;48.832;9.422;2024-03-17T01:30:50;4.90;99.90
4787;DHT22;62338;48.832;9.422;2024-03-17T01:32:51;4.90;99.90
4787;DHT22;62338;48.832;9.422;2024-03-17T01:34:52;4.90;99.90
4787;DHT22;62338;48.832;9.422;2024-03-17T01:36:53;4.90;99.90
4787;DHT22;62338;48.832;9.422;2024-03-17T01:38:53;4.80;99.90
4787;DHT22;62338;48.832;9.422;2024-03-17T01:40:54;4.80;99.90
4787;DHT22;62338;48.832;9.422;2024-03-17T01:42:55;4.70;99.90
4787;DHT22;62338;48.832;9.422;2024-03-17T01:44:56;4.70;99.90
4787;DHT22;62338;48.832;9.422;2024-03-17T01:46:57;4.70;99.90
4787;DHT22;62338;48.832;9.422;2024-03-17T01:48:58;4.70;99.90
4787;DHT22;62338;48.832;9.422;2024-03-17T01:50:59;4.70;99.90
4787;DHT22;62338;48.832;9.422;2024-03-17T01:53:02;4.70;99.90
4787;DHT22;62338;48.832;9.422;2024-03-17T01:55:05;2.30;99.90
4787;DHT22;62338;48.832;9.422;2024-03-17T01:57:07;4.60;99.90
4787;DHT22;62338;48.832;9.422;2024-03-17T01:59:09;4.60;99.90
4787;DHT22;62338;48.832;9.422;2024-03-17T02:01:10;4.60;99.90
4787;DHT22;62338;48.832;9.422;2024-03-17T02:03:12;4.60;99.90
4787;DHT22;62338;48.832;9.422;2024-03-17T02:05:13;4.70;99.90
4787;DHT22;62338;48.832;9.422;2024-03-17T02:07:14;4.80;99.90
4787;DHT22;62338;48.832;9.422;2024-03-17T02:09:15;4.80;99.90
4787;DHT22;62338;48.832;9.422;2024-03-17T02:11:32;4.80;99.90
4787;DHT22;62338;48.832;9.422;2024-03-17T02:13:33;4.80;99.90
4787;DHT22;62338;48.832;9.422;2024-03-17T02:15:34;4.70;99.90
4787;DHT22;62338;48.832;9.422;2024-03-17T02:17:36;4.70;99.90
4787;DHT22;62338;48.832;9.422;2024-03-17T02:19:36;4.60;99.90
4787;DHT22;62338;48.832;9.422;2024-03-17T02:21:37;4.60;99.90
4787;DHT22;62338;48.832;9.422;2024-03-17T02:23:38;4.60;99.90
4787;DHT22;62338;48.832;9.422;2024-03-17T02:25:39;4.60;99.90
4787;DHT22;62338;48.832;9.422;2024-03-17T02:27:40;4.60;99.90
4787;DHT22;62338;48.832;9.422;2024-03-17T02:29:41;4.50;99.90
4787;DHT22;62338;48.832;9.422;2024-03-17T02:31:42;4.60;99.90
4787;DHT22;62338;48.832;9.422;2024-03-17T02:33:44;4.60;99.90
4787;DHT22;62338;48.832;9.422;2024-03-17T02:35:45;4.60;99.90
4787;DHT22;62338;48.832;9.422;2024-03-17T02:37:47;4.70;99.90
4787;DHT22;62338;48.832;9.422;2024-03-17T02:39:47;4.70;99.90
4787;DHT22;62338;48.832;9.422;2024-03-17T02:41:48;4.70;99.90
4787;DHT22;62338;48.832;9.422;2024-03-17T02:43:49;4.70;99.90
4787;DHT22;62338;48.832;9.422;2024-03-17T02:45:51;4.80;99.90
4787;DHT22;62338;48.832;9.422;2024-03-17T02:47:51;4.80;99.90
4787;DHT22;62338;48.832;9.422;2024-03-17T02:49:52;4.90;99.90
4787;DHT22;62338;48.832;9.422;2024-03-17T02:51:54;4.90;99.90
4787;DHT22;62338;48.832;9.422;2024-03-17T02:53:55;4.90;99.90
4787;DHT22;62338;48.832;9.422;2024-03-17T02:55:56;4.90;99.90
4787;DHT22;62338;48.832;9.422;2024-03-17T02:57:56;4.90;99.90
4787;DHT22;62338;48.832;9.422;2024-03-17T02:59:58;5.00;99.90
4787;DHT22;62338;48.832;9.422;2024-03-17T03:01:59;5.00;99.90
4787;DHT22;62338;48.832;9.422;2024-03-17T03:04:00;5.10;99.90
4787;DHT22;62338;48.832;9.422;2024-03-17T03:06:01;5.10;99.90
4787;DHT22;62338;48.832;9.422;2024-03-17T03:08:05;5.20;99.90
4787;DHT22;62338;48.832;9.422;2024-03-17T03:10:05;5.20;99.90
4787;DHT22;62338;48.832;9.422;2024-03-17T03:12:06;5.10;99.90
4787;DHT22;62338;48.832;9.422;2024-03-17T03:14:08;5.10;99.90
4787;DHT22;62338;48.832;9.422;2024-03-17T03:16:13;5.10;99.90
4787;DHT22;62338;48.832;9.422;2024-03-17T03:18:19;5.20;99.90
4787;DHT22;62338;48.832;9.422;2024-03-17T03:20:19;5.20;99.90
4787;DHT22;62338;48.832;9.422;2024-03-17T03:22:20;5.20;99.90
4787;DHT22;62338;48.832;9.422;2024-03-17T03:24:22;5.20;99.90
4787;DHT22;62338;48.832;9.422;2024-03-17T03:26:23;5.20;99.90
4787;DHT22;62338;48.832;9.422;2024-03-17T03:28:26;5.20;99.90
4787;DHT22;62338;48.832;9.422;2024-03-17T03:30:27;5.20;99.90
4787;DHT22;62338;48.832;9.422;2024-03-17T03:32:28;5.20;99.90
4787;DHT22;62338;48.832;9.422;2024-03-17T03:34:29;5.10;99.90
4787;DHT22;62338;48.832;9.422;2024-03-17T03:36:30;5.00;99.90
4787;DHT22;62338;48.832;9.422;2024-03-17T03:38:31;4.90;99.90
4787;DHT22;62338;48.832;9.422;2024-03-17T03:40:31;4.80;99.90
4787;DHT22;62338;48.832;9.422;2024-03-17T03:42:33;4.90;99.90
4787;DHT22;62338;48.832;9.422;2024-03-17T03:44:34;4.90;99.90
4787;DHT22;62338;48.832;9.422;2024-03-17T03:46:34;4.80;99.90
4787;DHT22;62338;48.832;9.422;2024-03-17T03:48:35;4.70;99.90
4787;DHT22;62338;48.832;9.422;2024-03-17T03:50:38;4.70;99.90
4787;DHT22;62338;48.832;9.422;2024-03-17T03:52:38;4.60;99.90
4787;DHT22;62338;48.832;9.422;2024-03-17T03:54:40;4.60;99.90
4787;DHT22;62338;48.832;9.422;2024-03-17T03:56:41;4.50;99.90
4787;DHT22;62338;48.832;9.422;2024-03-17T03:58:42;4.50;99.90
4787;DHT22;62338;48.832;9.422;2024-03-17T04:00:43;4.50;99.90
4787;DHT22;62338;48.832;9.422;2024-03-17T04:02:44;4.50;99.90
4787;DHT22;62338;48.832;9.422;2024-03-17T04:04:45;4.60;99.90
4787;DHT22;62338;48.832;9.422;2024-03-17T04:06:45;4.60;99.90
4787;DHT22;62338;48.832;9.422;2024-03-17T04:08:47;4.60;99.90
4787;DHT22;62338;48.832;9.422;2024-03-17T04:12:49;4.60;99.90
4787;DHT22;62338;48.832;9.422;2024-03-17T04:14:50;4.60;99.90
4787;DHT22;62338;48.832;9.422;2024-03-17T04:16:54;4.60;99.90
4787;DHT22;62338;48.832;9.422;2024-03-17T04:18:55;4.60;99.90
4787;DHT22;62338;48.832;9.422;2024-03-17T04:20:58;4.60;99.90
4787;DHT22;62338;48.832;9.422;2024-03-17T04:23:01;4.60;99.90
4787;DHT22;62338;48.832;9.422;2024-03-17T04:25:04;4.60;99.90
4787;DHT22;62338;48.832;9.422;2024-03-17T04:27:05;4.60;99.90
4787;DHT22;62338;48.832;9.422;2024-03-17T04:29:06;4.50;99.90
4787;DHT22;62338;48.832;9.422;2024-03-17T04:31:07;4.50;99.90
4787;DHT22;62338;48.832;9.422;2024-03-17T04:33:11;4.60;99.90
4787;DHT22;62338;48.832;9.422;2024-03-17T04:35:11;4.70;99.90
4787;DHT22;62338;48.832;9.422;2024-03-17T04:37:13;4.70;99.90
4787;DHT22;62338;48.832;9.422;2024-03-17T04:39:14;4.70;99.90
4787;DHT22;62338;48.832;9.422;2024-03-17T04:41:16;4.70;99.90
4787;DHT22;62338;48.832;9.422;2024-03-17T04:43:17;4.70;99.90
4787;DHT22;62338;48.832;9.422;2024-03-17T04:48:34;4.70;99.90
4787;DHT22;62338;48.832;9.422;2024-03-17T04:50:35;4.70;99.90
4787;DHT22;62338;48.832;9.422;2024-03-17T04:52:35;4.70;99.90
4787;DHT22;62338;48.832;9.422;2024-03-17T04:54:36;4.70;99.90
4787;DHT22;62338;48.832;9.422;2024-03-17T04:56:37;4.70;99.90
4787;DHT22;62338;48.832;9.422;2024-03-17T04:58:38;4.70;99.90
4787;DHT22;62338;48.832;9.422;2024-03-17T05:00:39;4.70;99.90
4787;DHT22;62338;48.832;9.422;2024-03-17T05:02:40;4.70;99.90
4787;DHT22;62338;48.832;9.422;2024-03-17T05:04:41;3.00;99.90
4787;DHT22;62338;48.832;9.422;2024-03-17T05:06:42;4.70;99.90
4787;DHT22;62338;48.832;9.422;2024-03-17T05:08:46;4.60;99.90
4787;DHT22;62338;48.832;9.422;2024-03-17T05:10:47;5.20;99.90
4787;DHT22;62338;48.832;9.422;2024-03-17T05:12:48;4.50;99.90
4787;DHT22;62338;48.832;9.422;2024-03-17T05:14:49;4.50;99.90
4787;DHT22;62338;48.832;9.422;2024-03-17T05:16:50;4.50;99.90
4787;DHT22;62338;48.832;9.422;2024-03-17T05:18:51;4.40;99.90
4787;DHT22;62338;48.832;9.422;2024-03-17T05:21:03;4.30;99.90
4787;DHT22;62338;48.832;9.422;2024-03-17T05:23:04;4.20;99.90
4787;DHT22;62338;48.832;9.422;2024-03-17T05:25:05;4.20;99.90
4787;DHT22;62338;48.832;9.422;2024-03-17T05:27:06;4.10;99.90
4787;DHT22;62338;48.832;9.422;2024-03-17T05:29:06;4.10;99.90
4787;DHT22;62338;48.832;9.422;2024-03-17T05:31:07;4.10;99.90
4787;DHT22;62338;48.832;9.422;2024-03-17T05:33:08;4.20;99.90
4787;DHT22;62338;48.832;9.422;2024-03-17T05:35:09;4.20;99.90
4787;DHT22;62338;48.832;9.422;2024-03-17T05:37:10;4.20;99.90
4787;DHT22;62338;48.832;9.422;2024-03-17T05:39:11;4.20;99.90
4787;DHT22;62338;48.832;9.422;2024-03-17T05:41:12;4.20;99.90
4787;DHT22;62338;48.832;9.422;2024-03-17T05:43:13;4.30;99.90
4787;DHT22;62338;48.832;9.422;2024-03-17T05:45:13;4.20;99.90
4787;DHT22;62338;48.832;9.422;2024-03-17T05:47:14;4.20;99.90
4787;DHT22;62338;48.832;9.422;2024-03-17T05:49:15;4.20;99.90
4787;DHT22;62338;48.832;9.422;2024-03-17T05:51:16;4.30;99.90
4787;DHT22;62338;48.832;9.422;2024-03-17T05:53:17;4.30;99.90
4787;DHT22;62338;48.832;9.422;2024-03-17T05:55:18;4.40;99.90
4787;DHT22;62338;48.832;9.422;2024-03-17T05:57:19;4.50;99.90
4787;DHT22;62338;48.832;9.422;2024-03-17T05:59:20;4.60;99.90
4787;DHT22;62338;48.832;9.422;2024-03-17T06:01:21;4.60;99.90
4787;DHT22;62338;48.832;9.422;2024-03-17T06:03:23;4.70;99.90
4787;DHT22;62338;48.832;9.422;2024-03-17T06:05:23;4.80;99.90
4787;DHT22;62338;48.832;9.422;2024-03-17T06:07:24;4.90;99.90
4787;DHT22;62338;48.832;9.422;2024-03-17T06:09:25;4.90;99.90
4787;DHT22;62338;48.832;9.422;2024-03-17T06:11:26;5.00;99.90
4787;DHT22;62338;48.832;9.422;2024-03-17T06:13:27;5.20;99.90
4787;DHT22;62338;48.832;9.422;2024-03-17T06:15:29;5.20;99.90
4787;DHT22;62338;48.832;9.422;2024-03-17T06:17:30;5.30;99.90
4787;DHT22;62338;48.832;9.422;2024-03-17T06:19:31;5.40;99.90
4787;DHT22;62338;48.832;9.422;2024-03-17T06:21:31;5.50;99.90
4787;DHT22;62338;48.832;9.422;2024-03-17T06:23:32;5.50;99.90
4787;DHT22;62338;48.832;9.422;2024-03-17T06:25:41;5.60;99.90
4787;DHT22;62338;48.832;9.422;2024-03-17T06:27:43;5.60;99.90
4787;DHT22;62338;48.832;9.422;2024-03-17T06:29:44;5.60;99.90
4787;DHT22;62338;48.832;9.422;2024-03-17T06:31:46;5.60;99.90
4787;DHT22;62338;48.832;9.422;2024-03-17T06:33:47;5.60;99.90
4787;DHT22;62338;48.832;9.422;2024-03-17T06:35:48;5.70;99.90
4787;DHT22;62338;48.832;9.422;2024-03-17T06:37:49;5.80;99.90
4787;DHT22;62338;48.832;9.422;2024-03-17T06:39:49;6.00;99.90
4787;DHT22;62338;48.832;9.422;2024-03-17T06:41:50;6.40;99.90
4787;DHT22;62338;48.832;9.422;2024-03-17T06:43:51;6.70;99.90
4787;DHT22;62338;48.832;9.422;2024-03-17T06:45:59;7.10;99.90
4787;DHT22;62338;48.832;9.422;2024-03-17T06:48:00;7.50;99.90
4787;DHT22;62338;48.832;9.422;2024-03-17T06:50:02;8.00;99.90
4787;DHT22;62338;48.832;9.422;2024-03-17T06:52:04;8.40;99.90
4787;DHT22;62338;48.832;9.422;2024-03-17T06:54:05;8.80;99.90
4787;DHT22;62338;48.832;9.422;2024-03-17T06:56:06;9.20;99.90
4787;DHT22;62338;48.832;9.422;2024-03-17T06:58:07;9.50;99.90
4787;DHT22;62338;48.832;9.422;2024-03-17T07:00:08;9.80;99.90
4787;DHT22;62338;48.832;9.422;2024-03-17T07:02:14;9.90;99.90
4787;DHT22;62338;48.832;9.422;2024-03-17T07:04:18;10.30;99.90
4787;DHT22;62338;48.832;9.422;2024-03-17T07:06:19;10.50;99.90
4787;DHT22;62338;48.832;9.422;2024-03-17T07:08:20;10.70;99.90
4787;DHT22;62338;48.832;9.422;2024-03-17T07:10:21;10.60;99.90
4787;DHT22;62338;48.832;9.422;2024-03-17T07:12:22;10.70;99.90
4787;DHT22;62338;48.832;9.422;2024-03-17T07:14:23;10.70;99.90
4787;DHT22;62338;48.832;9.422;2024-03-17T07:16:26;10.70;99.90
4787;DHT22;62338;48.832;9.422;2024-03-17T07:18:28;10.50;99.90
4787;DHT22;62338;48.832;9.422;2024-03-17T07:20:32;10.50;99.90
4787;DHT22;62338;48.832;9.422;2024-03-17T07:22:33;12.10;99.90
4787;DHT22;62338;48.832;9.422;2024-03-17T07:24:34;11.10;99.90
4787;DHT22;62338;48.832;9.422;2024-03-17T07:26:35;11.00;99.90
4787;DHT22;62338;48.832;9.422;2024-03-17T07:28:36;11.20;99.90
4787;DHT22;62338;48.832;9.422;2024-03-17T07:30:53;10.70;99.90
4787;DHT22;62338;48.832;9.422;2024-03-17T07:32:54;10.30;99.90
4787;DHT22;62338;48.832;9.422;2024-03-17T07:34:55;10.20;99.90
4787;DHT22;62338;48.832;9.422;2024-03-17T07:36:56;10.30;99.90
4787;DHT22;62338;48.832;9.422;2024-03-17T07:38:56;10.80;99.90
4787;DHT22;62338;48.832;9.422;2024-03-17T07:41:03;11.50;99.90
4787;DHT22;62338;48.832;9.422;2024-03-17T07:43:04;12.10;99.90
4787;DHT22;62338;48.832;9.422;2024-03-17T07:45:05;12.60;99.90
4787;DHT22;62338;48.832;9.422;2024-03-17T07:47:06;13.10;99.90
4787;DHT22;62338;48.832;9.422;2024-03-17T07:49:07;13.20;99.90
4787;DHT22;62338;48.832;9.422;2024-03-17T07:51:10;13.20;99.90
4787;DHT22;62338;48.832;9.422;2024-03-17T07:53:12;13.00;99.90
4787;DHT22;62338;48.832;9.422;2024-03-17T07:55:12;12.30;99.90
4787;DHT22;62338;48.832;9.422;2024-03-17T07:57:13;11.60;99.90
4787;DHT22;62338;48.832;9.422;2024-03-17T07:59:15;11.20;99.90
4787;DHT22;62338;48.832;9.422;2024-03-17T08:01:18;10.90;99.90
4787;DHT22;62338;48.832;9.422;2024-03-17T08:03:19;10.90;99.90
4787;DHT22;62338;48.832;9.422;2024-03-17T08:05:20;11.10;99.90
4787;DHT22;62338;48.832;9.422;2024-03-17T08:07:21;11.20;99.90
4787;DHT22;62338;48.832;9.422;2024-03-17T08:09:22;11.30;99.90
4787;DHT22;62338;48.832;9.422;2024-03-17T08:11:23;11.40;99.90
4787;DHT22;62338;48.832;9.422;2024-03-17T08:13:25;11.60;99.90
4787;DHT22;62338;48.832;9.422;2024-03-17T08:15:26;12.10;99.90
4787;DHT22;62338;48.832;9.422;2024-03-17T08:17:26;12.70;99.90
4787;DHT22;62338;48.832;9.422;2024-03-17T08:19:27;12.80;99.90
4787;DHT22;62338;48.832;9.422;2024-03-17T08:21:28;12.70;99.90
4787;DHT22;62338;48.832;9.422;2024-03-17T08:23:30;12.40;99.90
4787;DHT22;62338;48.832;9.422;2024-03-17T08:25:32;11.90;99.90
4787;DHT22;62338;48.832;9.422;2024-03-17T08:27:33;11.80;99.90
4787;DHT22;62338;48.832;9.422;2024-03-17T08:29:34;11.70;99.90
4787;DHT22;62338;48.832;9.422;2024-03-17T08:31:35;11.70;99.90
4787;DHT22;62338;48.832;9.422;2024-03-17T08:33:37;12.00;99.90
4787;DHT22;62338;48.832;9.422;2024-03-17T08:35:38;12.10;99.90
4787;DHT22;62338;48.832;9.422;2024-03-17T08:37:38;12.20;99.90
4787;DHT22;62338;48.832;9.422;2024-03-17T08:39:40;12.30;99.90
4787;DHT22;62338;48.832;9.422;2024-03-17T08:41:41;12.20;99.90
4787;DHT22;62338;48.832;9.422;2024-03-17T08:43:44;12.20;99.90
4787;DHT22;62338;48.832;9.422;2024-03-17T08:45:54;12.10;99.90
4787;DHT22;62338;48.832;9.422;2024-03-17T08:47:55;11.80;99.90
4787;DHT22;62338;48.832;9.422;2024-03-17T08:49:55;11.50;99.90
4787;DHT22;62338;48.832;9.422;2024-03-17T08:51:56;11.00;99.90
4787;DHT22;62338;48.832;9.422;2024-03-17T08:53:57;10.70;99.90
4787;DHT22;62338;48.832;9.422;2024-03-17T08:55:58;10.70;99.90
4787;DHT22;62338;48.832;9.422;2024-03-17T08:57:59;10.60;99.90
4787;DHT22;62338;48.832;9.422;2024-03-17T09:00:00;10.70;99.90
4787;DHT22;62338;48.832;9.422;2024-03-17T09:02:00;10.80;99.90
4787;DHT22;62338;48.832;9.422;2024-03-17T09:04:01;11.10;99.90
4787;DHT22;62338;48.832;9.422;2024-03-17T09:06:02;11.20;99.90
4787;DHT22;62338;48.832;9.422;2024-03-17T09:08:03;11.20;99.90
4787;DHT22;62338;48.832;9.422;2024-03-17T09:10:05;11.30;99.90
4787;DHT22;62338;48.832;9.422;2024-03-17T09:12:06;11.20;99.90
4787;DHT22;62338;48.832;9.422;2024-03-17T09:14:08;11.40;99.90
4787;DHT22;62338;48.832;9.422;2024-03-17T09:16:10;11.90;99.90
4787;DHT22;62338;48.832;9.422;2024-03-17T09:18:11;12.40;99.90
4787;DHT22;62338;48.832;9.422;2024-03-17T09:20:12;12.60;99.90
4787;DHT22;62338;48.832;9.422;2024-03-17T09:22:15;12.90;99.90
4787;DHT22;62338;48.832;9.422;2024-03-17T09:24:16;13.00;99.90
4787;DHT22;62338;48.832;9.422;2024-03-17T09:26:16;13.30;99.90
4787;DHT22;62338;48.832;9.422;2024-03-17T09:28:18;13.70;99.90
4787;DHT22;62338;48.832;9.422;2024-03-17T09:30:19;14.30;99.90
4787;DHT22;62338;48.832;9.422;2024-03-17T09:32:20;11.50;99.90
4787;DHT22;62338;48.832;9.422;2024-03-17T09:34:21;14.70;99.90
4787;DHT22;62338;48.832;9.422;2024-03-17T09:36:21;14.70;99.90
4787;DHT22;62338;48.832;9.422;2024-03-17T09:38:22;14.50;99.90
4787;DHT22;62338;48.832;9.422;2024-03-17T09:40:23;14.40;99.90
4787;DHT22;62338;48.832;9.422;2024-03-17T09:42:24;14.70;99.90
4787;DHT22;62338;48.832;9.422;2024-03-17T09:44:25;14.80;99.90
4787;DHT22;62338;48.832;9.422;2024-03-17T09:46:27;15.10;99.90
4787;DHT22;62338;48.832;9.422;2024-03-17T09:48:29;14.90;99.90
4787;DHT22;62338;48.832;9.422;2024-03-17T09:50:31;14.90;99.90
4787;DHT22;62338;48.832;9.422;2024-03-17T09:52:34;14.50;99.00
4787;DHT22;62338;48.832;9.422;2024-03-17T09:54:35;14.40;99.90
4787;DHT22;62338;48.832;9.422;2024-03-17T09:56:36;14.40;99.90
4787;DHT22;62338;48.832;9.422;2024-03-17T09:58:38;14.60;99.90
4787;DHT22;62338;48.832;9.422;2024-03-17T10:00:38;14.50;99.90
4787;DHT22;62338;48.832;9.422;2024-03-17T10:02:46;13.70;99.90
4787;DHT22;62338;48.832;9.422;2024-03-17T10:04:48;13.20;99.90
4787;DHT22;62338;48.832;9.422;2024-03-17T10:06:48;13.00;99.90
4787;DHT22;62338;48.832;9.422;2024-03-17T10:08:56;12.80;99.90
4787;DHT22;62338;48.832;9.422;2024-03-17T10:10:57;13.00;99.90
4787;DHT22;62338;48.832;9.422;2024-03-17T10:12:58;13.00;99.90
4787;DHT22;62338;48.832;9.422;2024-03-17T10:14:59;13.30;99.90
4787;DHT22;62338;48.832;9.422;2024-03-17T10:17:00;13.40;99.90
4787;DHT22;62338;48.832;9.422;2024-03-17T10:19:21;13.70;99.90
4787;DHT22;62338;48.832;9.422;2024-03-17T10:21:26;14.10;99.90
4787;DHT22;62338;48.832;9.422;2024-03-17T10:23:30;14.20;99.90
4787;DHT22;62338;48.832;9.422;2024-03-17T10:25:38;14.40;99.90
4787;DHT22;62338;48.832;9.422;2024-03-17T10:27:43;14.70;99.90
4787;DHT22;62338;48.832;9.422;2024-03-17T10:29:44;15.00;99.20
4787;DHT22;62338;48.832;9.422;2024-03-17T10:31:47;14.80;99.90
4787;DHT22;62338;48.832;9.422;2024-03-17T10:34:01;14.90;99.90
4787;DHT22;62338;48.832;9.422;2024-03-17T10:36:02;14.40;99.50
4787;DHT22;62338;48.832;9.422;2024-03-17T10:38:07;14.60;99.90
4787;DHT22;62338;48.832;9.422;2024-03-17T10:40:10;14.60;98.30
4787;DHT22;62338;48.832;9.422;2024-03-17T10:42:13;14.50;98.20
4787;DHT22;62338;48.832;9.422;2024-03-17T10:44:14;14.60;97.70
4787;DHT22;62338;48.832;9.422;2024-03-17T10:46:15;14.60;96.50
4787;DHT22;62338;48.832;9.422;2024-03-17T10:48:19;14.70;98.40
4787;DHT22;62338;48.832;9.422;2024-03-17T10:50:23;14.60;97.50
4787;DHT22;62338;48.832;9.422;2024-03-17T10:52:27;14.60;97.60
4787;DHT22;62338;48.832;9.422;2024-03-17T10:54:29;14.80;97.80
4787;DHT22;62338;48.832;9.422;2024-03-17T10:56:30;14.30;96.40
4787;DHT22;62338;48.832;9.422;2024-03-17T10:58:43;14.10;99.00
4787;DHT22;62338;48.832;9.422;2024-03-17T11:00:50;14.40;99.40
4787;DHT22;62338;48.832;9.422;2024-03-17T11:02:54;14.80;97.70
4787;DHT22;62338;48.832;9.422;2024-03-17T11:05:11;14.90;99.70
4787;DHT22;62338;48.832;9.422;2024-03-17T11:07:16;15.00;97.50
4787;DHT22;62338;48.832;9.422;2024-03-17T11:09:18;15.20;97.00
4787;DHT22;62338;48.832;9.422;2024-03-17T11:11:36;15.50;97.20
4787;DHT22;62338;48.832;9.422;2024-03-17T11:13:38;15.50;98.70
4787;DHT22;62338;48.832;9.422;2024-03-17T11:15:40;15.60;96.20
4787;DHT22;62338;48.832;9.422;2024-03-17T11:17:41;15.50;95.70
4787;DHT22;62338;48.832;9.422;2024-03-17T11:19:42;15.70;96.00
4787;DHT22;62338;48.832;9.422;2024-03-17T11:21:43;16.00;97.70
4787;DHT22;62338;48.832;9.422;2024-03-17T11:23:58;16.10;95.40
4787;DHT22;62338;48.832;9.422;2024-03-17T11:26:00;16.10;94.70
4787;DHT22;62338;48.832;9.422;2024-03-17T11:28:01;16.20;98.40
4787;DHT22;62338;48.832;9.422;2024-03-17T11:32:40;17.80;97.10
4787;DHT22;62338;48.832;9.422;2024-03-17T11:34:41;18.50;92.00
4787;DHT22;62338;48.832;9.422;2024-03-17T11:36:43;18.70;93.70
4787;DHT22;62338;48.832;9.422;2024-03-17T11:43:35;18.00;92.60
4787;DHT22;62338;48.832;9.422;2024-03-17T11:45:36;17.90;91.20
4787;DHT22;62338;48.832;9.422;2024-03-17T11:47:39;17.80;90.50
4787;DHT22;62338;48.832;9.422;2024-03-17T11:49:40;17.70;91.20
4787;DHT22;62338;48.832;9.422;2024-03-17T11:51:44;17.30;90.70
4787;DHT22;62338;48.832;9.422;2024-03-17T11:53:45;16.60;93.10
4787;DHT22;62338;48.832;9.422;2024-03-17T11:55:49;15.80;93.00
4787;DHT22;62338;48.832;9.422;2024-03-17T11:57:55;16.50;93.20
4787;DHT22;62338;48.832;9.422;2024-03-17T11:59:56;16.90;94.60
4787;DHT22;62338;48.832;9.422;2024-03-17T12:01:58;16.70;92.20
4787;DHT22;62338;48.832;9.422;2024-03-17T12:03:59;16.80;92.90
4787;DHT22;62338;48.832;9.422;2024-03-17T12:06:04;16.70;91.30
4787;DHT22;62338;48.832;9.422;2024-03-17T12:08:20;16.90;92.10
4787;DHT22;62338;48.832;9.422;2024-03-17T12:10:21;17.20;91.80
4787;DHT22;62338;48.832;9.422;2024-03-17T12:12:28;17.50;90.50
4787;DHT22;62338;48.832;9.422;2024-03-17T12:14:36;17.60;92.40
4787;DHT22;62338;48.832;9.422;2024-03-17T12:16:37;17.30;90.90
4787;DHT22;62338;48.832;9.422;2024-03-17T12:18:40;17.30;90.50
4787;DHT22;62338;48.832;9.422;2024-03-17T12:20:47;17.50;90.60
4787;DHT22;62338;48.832;9.422;2024-03-17T12:22:49;17.60;91.80
4787;DHT22;62338;48.832;9.422;2024-03-17T12:24:53;17.60;90.50
4787;DHT22;62338;48.832;9.422;2024-03-17T12:26:55;17.70;88.90
4787;DHT22;62338;48.832;9.422;2024-03-17T12:28:57;17.70;88.80
4787;DHT22;62338;48.832;9.422;2024-03-17T12:30:58;17.20;89.60
4787;DHT22;62338;48.832;9.422;2024-03-17T12:32:59;17.00;87.00
4787;DHT22;62338;48.832;9.422;2024-03-17T12:35:01;16.90;90.00
4787;DHT22;62338;48.832;9.422;2024-03-17T12:37:04;17.00;91.20
4787;DHT22;62338;48.832;9.422;2024-03-17T12:39:25;17.00;86.40
4787;DHT22;62338;48.832;9.422;2024-03-17T12:41:27;17.60;90.30
4787;DHT22;62338;48.832;9.422;2024-03-17T12:43:27;17.60;88.50
4787;DHT22;62338;48.832;9.422;2024-03-17T12:45:28;17.40;90.10
4787;DHT22;62338;48.832;9.422;2024-03-17T12:47:30;17.60;90.50
4787;DHT22;62338;48.832;9.422;2024-03-17T12:49:34;17.60;89.20
4787;DHT22;62338;48.832;9.422;2024-03-17T12:51:35;17.20;90.00
4787;DHT22;62338;48.832;9.422;2024-03-17T12:53:40;16.70;90.30
4787;DHT22;62338;48.832;9.422;2024-03-17T12:55:41;16.30;91.30
4787;DHT22;62338;48.832;9.422;2024-03-17T13:00:23;15.50;91.70
4787;DHT22;62338;48.832;9.422;2024-03-17T13:02:33;15.30;93.30
4787;DHT22;62338;48.832;9.422;2024-03-17T13:04:33;15.30;90.70
4787;DHT22;62338;48.832;9.422;2024-03-17T13:06:35;15.30;91.00
4787;DHT22;62338;48.832;9.422;2024-03-17T13:08:36;15.30;92.70
4787;DHT22;62338;48.832;9.422;2024-03-17T13:10:37;18.40;94.20
4787;DHT22;62338;48.832;9.422;2024-03-17T13:12:38;15.30;92.50
4787;DHT22;62338;48.832;9.422;2024-03-17T13:14:38;15.10;93.70
4787;DHT22;62338;48.832;9.422;2024-03-17T13:16:39;15.00;92.70
4787;DHT22;62338;48.832;9.422;2024-03-17T13:18:40;14.90;93.00
4787;DHT22;62338;48.832;9.422;2024-03-17T13:20:41;14.90;93.70
4787;DHT22;62338;48.832;9.422;2024-03-17T13:22:45;14.90;92.50
4787;DHT22;62338;48.832;9.422;2024-03-17T13:24:46;14.80;92.00
4787;DHT22;62338;48.832;9.422;2024-03-17T13:26:47;14.70;93.00